sensor_id;sensor_type;location;lat;lon;timestamp;P1;durP1;ratioP1;P2;durP2;ratioP2
438;SDS011;206;48.782;9.252;2023-03-17T00:00:46;8.30;;;6.80;;
438;SDS011;206;48.782;9.252;2023-03-17T00:03:23;9.27;;;7.13;;
438;SDS011;206;48.782;9.252;2023-03-17T00:05:51;12.43;;;5.87;;
438;SDS011;206;48.782;9.252;2023-03-17T00:08:22;8.67;;;5.27;;
438;SDS011;206;48.782;9.252;2023-03-17T00:10:52;5.97;;;5.03;;
438;SDS011;206;48.782;9.252;2023-03-17T00:13:19;8.50;;;6.87;;
438;SDS011;206;48.782;9.252;2023-03-17T00:15:46;10.53;;;5.43;;
438;SDS011;206;48.782;9.252;2023-03-17T00:18:16;7.17;;;5.37;;
438;SDS011;206;48.782;9.252;2023-03-17T00:20:43;11.73;;;6.17;;
438;SDS011;206;48.782;9.252;2023-03-17T00:23:12;7.50;;;5.67;;
438;SDS011;206;48.782;9.252;2023-03-17T00:25:44;8.90;;;6.47;;
438;SDS011;206;48.782;9.252;2023-03-17T00:28:15;10.07;;;7.07;;
438;SDS011;206;48.782;9.252;2023-03-17T00:30:46;7.80;;;6.03;;
438;SDS011;206;48.782;9.252;2023-03-17T00:33:13;9.10;;;6.20;;
438;SDS011;206;48.782;9.252;2023-03-17T00:35:40;8.77;;;6.07;;
438;SDS011;206;48.782;9.252;2023-03-17T00:38:14;7.60;;;5.73;;
438;SDS011;206;48.782;9.252;2023-03-17T00:40:41;8.33;;;6.20;;
438;SDS011;206;48.782;9.252;2023-03-17T00:43:08;6.47;;;6.07;;
438;SDS011;206;48.782;9.252;2023-03-17T00:45:34;7.20;;;6.70;;
438;SDS011;206;48.782;9.252;2023-03-17T00:48:00;9.90;;;6.23;;
438;SDS011;206;48.782;9.252;2023-03-17T00:50:27;5.83;;;5.57;;
438;SDS011;206;48.782;9.252;2023-03-17T00:52:54;9.07;;;6.77;;
438;SDS011;206;48.782;9.252;2023-03-17T00:55:22;7.07;;;6.13;;
438;SDS011;206;48.782;9.252;2023-03-17T00:57:48;8.53;;;7.30;;
438;SDS011;206;48.782;9.252;2023-03-17T01:02:54;6.43;;;6.03;;
438;SDS011;206;48.782;9.252;2023-03-17T01:05:21;6.80;;;6.03;;
438;SDS011;206;48.782;9.252;2023-03-17T01:07:48;6.40;;;5.87;;
438;SDS011;206;48.782;9.252;2023-03-17T01:10:26;8.70;;;6.90;;
438;SDS011;206;48.782;9.252;2023-03-17T01:12:54;5.57;;;5.33;;
438;SDS011;206;48.782;9.252;2023-03-17T01:15:23;6.63;;;6.10;;
438;SDS011;206;48.782;9.252;2023-03-17T01:17:50;7.13;;;5.30;;
438;SDS011;206;48.782;9.252;2023-03-17T01:20:18;9.40;;;6.27;;
438;SDS011;206;48.782;9.252;2023-03-17T01:22:49;6.57;;;6.07;;
438;SDS011;206;48.782;9.252;2023-03-17T01:25:16;10.27;;;5.07;;
438;SDS011;206;48.782;9.252;2023-03-17T01:27:43;7.17;;;5.40;;
438;SDS011;206;48.782;9.252;2023-03-17T01:30:55;15.17;;;6.07;;
438;SDS011;206;48.782;9.252;2023-03-17T01:33:02;5.13;;;4.80;;
438;SDS011;206;48.782;9.252;2023-03-17T01:35:29;6.17;;;5.07;;
438;SDS011;206;48.782;9.252;2023-03-17T01:37:55;9.50;;;5.80;;
438;SDS011;206;48.782;9.252;2023-03-17T01:40:22;6.10;;;5.03;;
438;SDS011;206;48.782;9.252;2023-03-17T01:42:58;7.87;;;6.23;;
438;SDS011;206;48.782;9.252;2023-03-17T01:48:46;8.43;;;6.10;;
438;SDS011;206;48.782;9.252;2023-03-17T01:51:19;6.30;;;5.13;;
438;SDS011;206;48.782;9.252;2023-03-17T01:53:49;6.00;;;5.57;;
438;SDS011;206;48.782;9.252;2023-03-17T01:56:16;6.17;;;5.87;;
438;SDS011;206;48.782;9.252;2023-03-17T01:58:43;6.33;;;5.43;;
438;SDS011;206;48.782;9.252;2023-03-17T02:01:13;6.00;;;5.63;;
438;SDS011;206;48.782;9.252;2023-03-17T02:03:38;7.43;;;5.60;;
438;SDS011;206;48.782;9.252;2023-03-17T02:06:05;7.40;;;5.47;;
438;SDS011;206;48.782;9.252;2023-03-17T02:08:32;10.97;;;5.10;;
438;SDS011;206;48.782;9.252;2023-03-17T02:10:57;7.50;;;5.70;;
438;SDS011;206;48.782;9.252;2023-03-17T02:13:23;6.03;;;4.83;;
438;SDS011;206;48.782;9.252;2023-03-17T02:15:50;6.80;;;4.80;;
438;SDS011;206;48.782;9.252;2023-03-17T02:18:18;9.03;;;5.97;;
438;SDS011;206;48.782;9.252;2023-03-17T02:23:11;5.37;;;5.07;;
438;SDS011;206;48.782;9.252;2023-03-17T02:25:41;8.00;;;6.20;;
438;SDS011;206;48.782;9.252;2023-03-17T02:28:10;6.90;;;5.90;;
438;SDS011;206;48.782;9.252;2023-03-17T02:30:40;5.83;;;5.07;;
438;SDS011;206;48.782;9.252;2023-03-17T02:33:07;6.53;;;6.13;;
438;SDS011;206;48.782;9.252;2023-03-17T02:35:33;8.20;;;6.30;;
438;SDS011;206;48.782;9.252;2023-03-17T02:37:59;6.93;;;5.30;;
438;SDS011;206;48.782;9.252;2023-03-17T02:40:25;6.57;;;5.90;;
438;SDS011;206;48.782;9.252;2023-03-17T02:42:51;6.80;;;6.23;;
438;SDS011;206;48.782;9.252;2023-03-17T02:45:18;6.87;;;5.87;;
438;SDS011;206;48.782;9.252;2023-03-17T02:47:44;10.13;;;7.50;;
438;SDS011;206;48.782;9.252;2023-03-17T02:50:20;7.47;;;6.47;;
438;SDS011;206;48.782;9.252;2023-03-17T02:52:48;9.37;;;7.07;;
438;SDS011;206;48.782;9.252;2023-03-17T02:55:14;5.43;;;4.93;;
438;SDS011;206;48.782;9.252;2023-03-17T02:57:41;9.03;;;6.23;;
438;SDS011;206;48.782;9.252;2023-03-17T03:00:07;7.50;;;5.40;;
438;SDS011;206;48.782;9.252;2023-03-17T03:02:38;4.83;;;4.53;;
438;SDS011;206;48.782;9.252;2023-03-17T03:05:04;5.30;;;5.03;;
438;SDS011;206;48.782;9.252;2023-03-17T03:07:31;7.43;;;5.60;;
438;SDS011;206;48.782;9.252;2023-03-17T03:09:57;6.63;;;5.07;;
438;SDS011;206;48.782;9.252;2023-03-17T03:12:23;6.80;;;5.07;;
438;SDS011;206;48.782;9.252;2023-03-17T03:14:49;8.23;;;5.83;;
438;SDS011;206;48.782;9.252;2023-03-17T03:17:14;7.17;;;5.63;;
438;SDS011;206;48.782;9.252;2023-03-17T03:19:40;7.30;;;4.87;;
438;SDS011;206;48.782;9.252;2023-03-17T03:22:06;5.97;;;5.20;;
438;SDS011;206;48.782;9.252;2023-03-17T03:24:32;5.17;;;4.60;;
438;SDS011;206;48.782;9.252;2023-03-17T03:26:58;4.70;;;4.40;;
438;SDS011;206;48.782;9.252;2023-03-17T03:29:24;6.50;;;4.90;;
438;SDS011;206;48.782;9.252;2023-03-17T03:31:49;7.63;;;5.30;;
438;SDS011;206;48.782;9.252;2023-03-17T03:34:15;5.77;;;4.47;;
438;SDS011;206;48.782;9.252;2023-03-17T03:36:41;8.30;;;5.30;;
438;SDS011;206;48.782;9.252;2023-03-17T03:39:06;5.70;;;5.00;;
438;SDS011;206;48.782;9.252;2023-03-17T03:41:32;6.63;;;5.13;;
438;SDS011;206;48.782;9.252;2023-03-17T03:43:58;9.20;;;4.00;;
438;SDS011;206;48.782;9.252;2023-03-17T03:46:24;6.87;;;5.07;;
438;SDS011;206;48.782;9.252;2023-03-17T03:48:50;6.80;;;4.70;;
438;SDS011;206;48.782;9.252;2023-03-17T03:51:16;7.30;;;5.57;;
438;SDS011;206;48.782;9.252;2023-03-17T03:53:42;6.67;;;5.30;;
438;SDS011;206;48.782;9.252;2023-03-17T03:56:08;6.80;;;6.33;;
438;SDS011;206;48.782;9.252;2023-03-17T03:58:34;6.57;;;5.10;;
438;SDS011;206;48.782;9.252;2023-03-17T04:01:02;5.80;;;5.17;;
438;SDS011;206;48.782;9.252;2023-03-17T04:03:32;8.43;;;5.70;;
438;SDS011;206;48.782;9.252;2023-03-17T04:05:57;6.20;;;5.90;;
438;SDS011;206;48.782;9.252;2023-03-17T04:08:23;7.43;;;5.93;;
438;SDS011;206;48.782;9.252;2023-03-17T04:10:49;8.20;;;6.40;;
438;SDS011;206;48.782;9.252;2023-03-17T04:13:15;6.40;;;5.77;;
438;SDS011;206;48.782;9.252;2023-03-17T04:15:40;6.67;;;6.27;;
438;SDS011;206;48.782;9.252;2023-03-17T04:18:06;8.47;;;6.50;;
438;SDS011;206;48.782;9.252;2023-03-17T04:20:32;12.83;;;6.90;;
438;SDS011;206;48.782;9.252;2023-03-17T04:22:57;7.13;;;5.77;;
438;SDS011;206;48.782;9.252;2023-03-17T04:25:23;7.93;;;5.90;;
438;SDS011;206;48.782;9.252;2023-03-17T04:27:48;7.53;;;5.60;;
438;SDS011;206;48.782;9.252;2023-03-17T04:30:14;5.70;;;5.40;;
438;SDS011;206;48.782;9.252;2023-03-17T04:32:41;6.60;;;6.10;;
438;SDS011;206;48.782;9.252;2023-03-17T04:35:08;7.60;;;5.83;;
438;SDS011;206;48.782;9.252;2023-03-17T04:37:37;6.20;;;5.17;;
438;SDS011;206;48.782;9.252;2023-03-17T04:40:04;7.13;;;5.90;;
438;SDS011;206;48.782;9.252;2023-03-17T04:42:32;6.00;;;4.47;;
438;SDS011;206;48.782;9.252;2023-03-17T04:44:57;5.83;;;5.53;;
438;SDS011;206;48.782;9.252;2023-03-17T04:47:23;8.23;;;5.37;;
438;SDS011;206;48.782;9.252;2023-03-17T04:49:48;6.60;;;6.00;;
438;SDS011;206;48.782;9.252;2023-03-17T04:52:14;6.33;;;5.80;;
438;SDS011;206;48.782;9.252;2023-03-17T04:54:40;11.13;;;5.93;;
438;SDS011;206;48.782;9.252;2023-03-17T04:57:06;7.50;;;7.10;;
438;SDS011;206;48.782;9.252;2023-03-17T04:59:31;8.20;;;6.03;;
438;SDS011;206;48.782;9.252;2023-03-17T05:01:57;6.60;;;5.67;;
438;SDS011;206;48.782;9.252;2023-03-17T05:04:22;11.33;;;6.00;;
438;SDS011;206;48.782;9.252;2023-03-17T05:06:48;8.67;;;6.27;;
438;SDS011;206;48.782;9.252;2023-03-17T05:09:13;6.47;;;5.53;;
438;SDS011;206;48.782;9.252;2023-03-17T05:11:39;8.83;;;6.43;;
438;SDS011;206;48.782;9.252;2023-03-17T05:14:06;11.10;;;6.50;;
438;SDS011;206;48.782;9.252;2023-03-17T05:16:31;8.93;;;6.30;;
438;SDS011;206;48.782;9.252;2023-03-17T05:18:57;8.10;;;5.83;;
438;SDS011;206;48.782;9.252;2023-03-17T05:21:23;7.27;;;6.10;;
438;SDS011;206;48.782;9.252;2023-03-17T05:23:48;8.30;;;6.53;;
438;SDS011;206;48.782;9.252;2023-03-17T05:26:14;11.40;;;7.40;;
438;SDS011;206;48.782;9.252;2023-03-17T05:28:40;8.57;;;8.07;;
438;SDS011;206;48.782;9.252;2023-03-17T05:31:06;11.23;;;7.20;;
438;SDS011;206;48.782;9.252;2023-03-17T05:33:32;9.90;;;7.33;;
438;SDS011;206;48.782;9.252;2023-03-17T05:35:58;12.30;;;8.30;;
438;SDS011;206;48.782;9.252;2023-03-17T05:38:24;12.33;;;7.90;;
438;SDS011;206;48.782;9.252;2023-03-17T05:40:50;8.27;;;7.33;;
438;SDS011;206;48.782;9.252;2023-03-17T05:43:16;10.13;;;7.10;;
438;SDS011;206;48.782;9.252;2023-03-17T05:45:42;12.80;;;8.73;;
438;SDS011;206;48.782;9.252;2023-03-17T05:48:09;13.23;;;8.17;;
438;SDS011;206;48.782;9.252;2023-03-17T05:50:36;6.47;;;6.00;;
438;SDS011;206;48.782;9.252;2023-03-17T05:53:01;13.67;;;7.60;;
438;SDS011;206;48.782;9.252;2023-03-17T05:55:27;12.17;;;8.43;;
438;SDS011;206;48.782;9.252;2023-03-17T05:57:53;13.20;;;8.70;;
438;SDS011;206;48.782;9.252;2023-03-17T06:00:18;8.20;;;7.30;;
438;SDS011;206;48.782;9.252;2023-03-17T06:02:45;9.83;;;6.30;;
438;SDS011;206;48.782;9.252;2023-03-17T06:05:11;9.40;;;7.03;;
438;SDS011;206;48.782;9.252;2023-03-17T06:07:37;12.13;;;8.40;;
438;SDS011;206;48.782;9.252;2023-03-17T06:10:03;7.47;;;6.80;;
438;SDS011;206;48.782;9.252;2023-03-17T06:12:29;8.03;;;7.03;;
438;SDS011;206;48.782;9.252;2023-03-17T06:14:55;9.80;;;6.83;;
438;SDS011;206;48.782;9.252;2023-03-17T06:17:20;8.73;;;7.10;;
438;SDS011;206;48.782;9.252;2023-03-17T06:19:47;9.70;;;7.30;;
438;SDS011;206;48.782;9.252;2023-03-17T06:22:13;8.83;;;6.73;;
438;SDS011;206;48.782;9.252;2023-03-17T06:24:38;8.33;;;6.80;;
438;SDS011;206;48.782;9.252;2023-03-17T06:27:04;7.13;;;6.30;;
438;SDS011;206;48.782;9.252;2023-03-17T06:29:29;8.20;;;7.23;;
438;SDS011;206;48.782;9.252;2023-03-17T06:31:55;7.37;;;5.97;;
438;SDS011;206;48.782;9.252;2023-03-17T06:34:21;9.30;;;7.40;;
438;SDS011;206;48.782;9.252;2023-03-17T06:36:48;10.17;;;6.27;;
438;SDS011;206;48.782;9.252;2023-03-17T06:39:14;9.63;;;7.67;;
438;SDS011;206;48.782;9.252;2023-03-17T06:41:42;10.27;;;7.53;;
438;SDS011;206;48.782;9.252;2023-03-17T06:44:07;8.40;;;7.10;;
438;SDS011;206;48.782;9.252;2023-03-17T06:46:34;8.60;;;7.60;;
438;SDS011;206;48.782;9.252;2023-03-17T06:49:00;8.30;;;5.60;;
438;SDS011;206;48.782;9.252;2023-03-17T06:51:27;9.80;;;7.53;;
438;SDS011;206;48.782;9.252;2023-03-17T06:53:53;8.40;;;6.80;;
438;SDS011;206;48.782;9.252;2023-03-17T06:56:18;10.50;;;7.80;;
438;SDS011;206;48.782;9.252;2023-03-17T06:58:44;9.27;;;6.60;;
438;SDS011;206;48.782;9.252;2023-03-17T07:01:11;8.73;;;6.73;;
438;SDS011;206;48.782;9.252;2023-03-17T07:03:38;9.47;;;5.67;;
438;SDS011;206;48.782;9.252;2023-03-17T07:06:04;13.67;;;6.20;;
438;SDS011;206;48.782;9.252;2023-03-17T07:08:30;10.20;;;6.10;;
438;SDS011;206;48.782;9.252;2023-03-17T07:10:56;6.27;;;5.93;;
438;SDS011;206;48.782;9.252;2023-03-17T07:13:22;10.70;;;6.82;;
438;SDS011;206;48.782;9.252;2023-03-17T07:15:48;8.83;;;6.90;;
438;SDS011;206;48.782;9.252;2023-03-17T07:18:14;10.30;;;7.67;;
438;SDS011;206;48.782;9.252;2023-03-17T07:20:40;9.83;;;7.60;;
438;SDS011;206;48.782;9.252;2023-03-17T07:23:08;16.20;;;8.27;;
438;SDS011;206;48.782;9.252;2023-03-17T07:25:38;12.60;;;7.50;;
438;SDS011;206;48.782;9.252;2023-03-17T07:28:07;11.80;;;9.63;;
438;SDS011;206;48.782;9.252;2023-03-17T07:30:33;12.83;;;8.53;;
438;SDS011;206;48.782;9.252;2023-03-17T07:32:59;14.17;;;7.23;;
438;SDS011;206;48.782;9.252;2023-03-17T07:35:25;21.83;;;8.57;;
438;SDS011;206;48.782;9.252;2023-03-17T07:37:52;8.90;;;7.97;;
438;SDS011;206;48.782;9.252;2023-03-17T07:40:18;10.30;;;8.00;;
438;SDS011;206;48.782;9.252;2023-03-17T07:42:43;11.47;;;8.43;;
438;SDS011;206;48.782;9.252;2023-03-17T07:45:09;10.90;;;7.63;;
438;SDS011;206;48.782;9.252;2023-03-17T07:47:35;12.55;;;11.32;;
438;SDS011;206;48.782;9.252;2023-03-17T07:50:01;7.57;;;6.73;;
438;SDS011;206;48.782;9.252;2023-03-17T07:52:27;14.17;;;9.27;;
438;SDS011;206;48.782;9.252;2023-03-17T07:54:52;7.27;;;6.07;;
438;SDS011;206;48.782;9.252;2023-03-17T07:57:19;15.23;;;10.30;;
438;SDS011;206;48.782;9.252;2023-03-17T07:59:46;9.70;;;6.60;;
438;SDS011;206;48.782;9.252;2023-03-17T08:02:15;6.13;;;5.50;;
438;SDS011;206;48.782;9.252;2023-03-17T08:04:42;10.90;;;7.13;;
438;SDS011;206;48.782;9.252;2023-03-17T08:07:08;7.67;;;6.67;;
438;SDS011;206;48.782;9.252;2023-03-17T08:09:34;7.30;;;4.60;;
438;SDS011;206;48.782;9.252;2023-03-17T08:12:01;6.67;;;5.57;;
438;SDS011;206;48.782;9.252;2023-03-17T08:14:27;5.43;;;4.40;;
438;SDS011;206;48.782;9.252;2023-03-17T08:16:53;6.83;;;4.43;;
438;SDS011;206;48.782;9.252;2023-03-17T08:19:19;5.77;;;4.70;;
438;SDS011;206;48.782;9.252;2023-03-17T08:21:46;4.93;;;4.30;;
438;SDS011;206;48.782;9.252;2023-03-17T08:24:11;4.67;;;4.43;;
438;SDS011;206;48.782;9.252;2023-03-17T08:26:37;6.40;;;5.03;;
438;SDS011;206;48.782;9.252;2023-03-17T08:29:03;5.87;;;4.97;;
438;SDS011;206;48.782;9.252;2023-03-17T08:31:32;7.63;;;5.30;;
438;SDS011;206;48.782;9.252;2023-03-17T08:33:58;10.07;;;4.63;;
438;SDS011;206;48.782;9.252;2023-03-17T08:36:24;6.20;;;4.37;;
438;SDS011;206;48.782;9.252;2023-03-17T08:38:50;6.13;;;4.50;;
438;SDS011;206;48.782;9.252;2023-03-17T08:41:17;6.23;;;4.37;;
438;SDS011;206;48.782;9.252;2023-03-17T08:43:45;7.37;;;3.70;;
438;SDS011;206;48.782;9.252;2023-03-17T08:46:13;8.40;;;4.40;;
438;SDS011;206;48.782;9.252;2023-03-17T08:48:43;8.30;;;5.03;;
438;SDS011;206;48.782;9.252;2023-03-17T08:51:11;10.30;;;4.63;;
438;SDS011;206;48.782;9.252;2023-03-17T08:53:37;6.77;;;4.80;;
438;SDS011;206;48.782;9.252;2023-03-17T08:56:04;4.27;;;3.97;;
438;SDS011;206;48.782;9.252;2023-03-17T08:58:31;8.40;;;4.70;;
438;SDS011;206;48.782;9.252;2023-03-17T09:00:58;5.77;;;4.70;;
438;SDS011;206;48.782;9.252;2023-03-17T09:03:24;4.73;;;4.20;;
438;SDS011;206;48.782;9.252;2023-03-17T09:05:50;10.10;;;4.60;;
438;SDS011;206;48.782;9.252;2023-03-17T09:08:16;16.83;;;8.20;;
438;SDS011;206;48.782;9.252;2023-03-17T09:10:42;14.17;;;5.20;;
438;SDS011;206;48.782;9.252;2023-03-17T09:13:07;12.33;;;4.53;;
438;SDS011;206;48.782;9.252;2023-03-17T09:15:34;4.57;;;4.10;;
438;SDS011;206;48.782;9.252;2023-03-17T09:18:00;7.80;;;5.13;;
438;SDS011;206;48.782;9.252;2023-03-17T09:20:27;5.43;;;4.37;;
438;SDS011;206;48.782;9.252;2023-03-17T09:22:53;9.23;;;3.60;;
438;SDS011;206;48.782;9.252;2023-03-17T09:25:18;8.40;;;4.50;;
438;SDS011;206;48.782;9.252;2023-03-17T09:27:44;8.77;;;3.83;;
438;SDS011;206;48.782;9.252;2023-03-17T09:30:10;5.53;;;4.00;;
438;SDS011;206;48.782;9.252;2023-03-17T09:32:39;5.13;;;2.97;;
438;SDS011;206;48.782;9.252;2023-03-17T09:35:05;4.57;;;3.13;;
438;SDS011;206;48.782;9.252;2023-03-17T09:37:31;3.87;;;3.47;;
438;SDS011;206;48.782;9.252;2023-03-17T09:39:58;11.70;;;3.67;;
438;SDS011;206;48.782;9.252;2023-03-17T09:42:36;4.90;;;3.40;;
438;SDS011;206;48.782;9.252;2023-03-17T09:50:50;3.63;;;2.67;;
438;SDS011;206;48.782;9.252;2023-03-17T09:53:22;3.20;;;2.73;;
438;SDS011;206;48.782;9.252;2023-03-17T09:56:01;4.57;;;3.23;;
438;SDS011;206;48.782;9.252;2023-03-17T09:58:32;5.90;;;3.27;;
438;SDS011;206;48.782;9.252;2023-03-17T10:01:00;5.30;;;3.33;;
438;SDS011;206;48.782;9.252;2023-03-17T10:03:29;2.83;;;2.63;;
438;SDS011;206;48.782;9.252;2023-03-17T10:06:06;4.07;;;3.37;;
438;SDS011;206;48.782;9.252;2023-03-17T10:09:03;3.23;;;2.77;;
438;SDS011;206;48.782;9.252;2023-03-17T10:11:53;5.10;;;4.30;;
438;SDS011;206;48.782;9.252;2023-03-17T10:14:45;3.10;;;2.90;;
438;SDS011;206;48.782;9.252;2023-03-17T10:17:32;4.43;;;3.17;;
438;SDS011;206;48.782;9.252;2023-03-17T10:20:04;3.80;;;2.90;;
438;SDS011;206;48.782;9.252;2023-03-17T10:22:37;4.90;;;3.00;;
438;SDS011;206;48.782;9.252;2023-03-17T10:25:15;3.70;;;3.00;;
438;SDS011;206;48.782;9.252;2023-03-17T10:27:44;2.57;;;2.27;;
438;SDS011;206;48.782;9.252;2023-03-17T10:30:16;7.50;;;3.27;;
438;SDS011;206;48.782;9.252;2023-03-17T10:32:45;2.57;;;2.20;;
438;SDS011;206;48.782;9.252;2023-03-17T10:35:11;2.60;;;2.27;;
438;SDS011;206;48.782;9.252;2023-03-17T10:37:38;2.60;;;2.10;;
438;SDS011;206;48.782;9.252;2023-03-17T10:40:05;3.73;;;2.27;;
438;SDS011;206;48.782;9.252;2023-03-17T10:42:43;3.77;;;2.63;;
438;SDS011;206;48.782;9.252;2023-03-17T10:45:26;2.80;;;1.53;;
438;SDS011;206;48.782;9.252;2023-03-17T10:47:55;4.10;;;2.47;;
438;SDS011;206;48.782;9.252;2023-03-17T10:50:26;1.70;;;1.63;;
438;SDS011;206;48.782;9.252;2023-03-17T10:55:30;5.33;;;2.20;;
438;SDS011;206;48.782;9.252;2023-03-17T10:58:13;3.80;;;2.10;;
438;SDS011;206;48.782;9.252;2023-03-17T11:00:54;4.13;;;2.00;;
438;SDS011;206;48.782;9.252;2023-03-17T11:03:27;8.17;;;2.27;;
438;SDS011;206;48.782;9.252;2023-03-17T11:08:31;2.67;;;2.10;;
438;SDS011;206;48.782;9.252;2023-03-17T11:11:03;3.90;;;2.90;;
438;SDS011;206;48.782;9.252;2023-03-17T11:13:31;5.73;;;2.97;;
438;SDS011;206;48.782;9.252;2023-03-17T11:16:15;4.97;;;2.60;;
438;SDS011;206;48.782;9.252;2023-03-17T11:18:46;4.97;;;2.27;;
438;SDS011;206;48.782;9.252;2023-03-17T11:21:15;4.90;;;2.43;;
438;SDS011;206;48.782;9.252;2023-03-17T11:32:06;2.27;;;1.97;;
438;SDS011;206;48.782;9.252;2023-03-17T11:40:11;6.00;;;2.20;;
438;SDS011;206;48.782;9.252;2023-03-17T11:42:53;5.37;;;1.93;;
438;SDS011;206;48.782;9.252;2023-03-17T11:45:44;4.83;;;2.47;;
438;SDS011;206;48.782;9.252;2023-03-17T11:51:34;3.40;;;1.60;;
438;SDS011;206;48.782;9.252;2023-03-17T11:57:04;2.30;;;1.77;;
438;SDS011;206;48.782;9.252;2023-03-17T11:59:58;5.33;;;2.00;;
438;SDS011;206;48.782;9.252;2023-03-17T12:03:11;4.20;;;2.10;;
438;SDS011;206;48.782;9.252;2023-03-17T12:05:23;3.00;;;2.30;;
438;SDS011;206;48.782;9.252;2023-03-17T12:07:51;2.83;;;1.63;;
438;SDS011;206;48.782;9.252;2023-03-17T12:10:36;5.83;;;2.10;;
438;SDS011;206;48.782;9.252;2023-03-17T12:13:20;3.13;;;1.70;;
438;SDS011;206;48.782;9.252;2023-03-17T12:15:56;4.20;;;3.07;;
438;SDS011;206;48.782;9.252;2023-03-17T12:24:03;1.67;;;1.43;;
438;SDS011;206;48.782;9.252;2023-03-17T12:32:18;2.80;;;1.80;;
438;SDS011;206;48.782;9.252;2023-03-17T12:35:20;3.80;;;2.43;;
438;SDS011;206;48.782;9.252;2023-03-17T12:37:48;6.53;;;3.10;;
438;SDS011;206;48.782;9.252;2023-03-17T12:40:16;3.53;;;1.60;;
438;SDS011;206;48.782;9.252;2023-03-17T12:42:59;4.53;;;2.30;;
438;SDS011;206;48.782;9.252;2023-03-17T12:51:58;3.00;;;2.37;;
438;SDS011;206;48.782;9.252;2023-03-17T12:54:29;1.90;;;1.67;;
438;SDS011;206;48.782;9.252;2023-03-17T12:56:59;2.57;;;1.73;;
438;SDS011;206;48.782;9.252;2023-03-17T12:59:28;2.00;;;1.60;;
438;SDS011;206;48.782;9.252;2023-03-17T13:02:11;4.67;;;1.97;;
438;SDS011;206;48.782;9.252;2023-03-17T13:04:56;2.40;;;1.50;;
438;SDS011;206;48.782;9.252;2023-03-17T13:07:31;5.43;;;1.87;;
438;SDS011;206;48.782;9.252;2023-03-17T13:12:33;1.70;;;1.40;;
438;SDS011;206;48.782;9.252;2023-03-17T13:14:59;2.30;;;1.87;;
438;SDS011;206;48.782;9.252;2023-03-17T13:22:38;7.27;;;2.30;;
438;SDS011;206;48.782;9.252;2023-03-17T13:46:26;1.13;;;0.93;;
438;SDS011;206;48.782;9.252;2023-03-17T13:49:02;6.20;;;1.03;;
438;SDS011;206;48.782;9.252;2023-03-17T13:51:40;3.43;;;1.60;;
438;SDS011;206;48.782;9.252;2023-03-17T13:54:18;5.03;;;1.83;;
438;SDS011;206;48.782;9.252;2023-03-17T13:56:53;3.43;;;1.87;;
438;SDS011;206;48.782;9.252;2023-03-17T14:02:16;3.20;;;1.97;;
438;SDS011;206;48.782;9.252;2023-03-17T14:04:55;4.43;;;2.37;;
438;SDS011;206;48.782;9.252;2023-03-17T14:07:27;4.73;;;2.00;;
438;SDS011;206;48.782;9.252;2023-03-17T14:10:24;4.50;;;1.30;;
438;SDS011;206;48.782;9.252;2023-03-17T14:13:02;3.63;;;1.37;;
438;SDS011;206;48.782;9.252;2023-03-17T14:15:49;3.00;;;1.27;;
438;SDS011;206;48.782;9.252;2023-03-17T14:18:28;4.33;;;1.37;;
438;SDS011;206;48.782;9.252;2023-03-17T14:20:58;3.27;;;1.10;;
438;SDS011;206;48.782;9.252;2023-03-17T14:23:26;8.13;;;1.87;;
438;SDS011;206;48.782;9.252;2023-03-17T14:25:54;2.30;;;1.30;;
438;SDS011;206;48.782;9.252;2023-03-17T14:28:24;3.90;;;1.67;;
438;SDS011;206;48.782;9.252;2023-03-17T14:30:53;3.80;;;2.00;;
438;SDS011;206;48.782;9.252;2023-03-17T14:33:23;6.50;;;3.07;;
438;SDS011;206;48.782;9.252;2023-03-17T14:35:52;2.17;;;1.57;;
438;SDS011;206;48.782;9.252;2023-03-17T14:38:27;4.43;;;2.27;;
438;SDS011;206;48.782;9.252;2023-03-17T14:41:05;5.10;;;1.63;;
438;SDS011;206;48.782;9.252;2023-03-17T14:43:32;2.00;;;1.60;;
438;SDS011;206;48.782;9.252;2023-03-17T14:45:59;6.20;;;2.90;;
438;SDS011;206;48.782;9.252;2023-03-17T14:48:29;6.43;;;1.40;;
438;SDS011;206;48.782;9.252;2023-03-17T14:50:59;5.33;;;2.63;;
438;SDS011;206;48.782;9.252;2023-03-17T14:53:31;6.80;;;4.50;;
438;SDS011;206;48.782;9.252;2023-03-17T14:55:59;5.73;;;2.90;;
438;SDS011;206;48.782;9.252;2023-03-17T14:58:27;7.63;;;3.47;;
438;SDS011;206;48.782;9.252;2023-03-17T15:01:00;5.60;;;2.33;;
438;SDS011;206;48.782;9.252;2023-03-17T15:03:27;3.43;;;1.90;;
438;SDS011;206;48.782;9.252;2023-03-17T15:08:51;3.50;;;2.17;;
438;SDS011;206;48.782;9.252;2023-03-17T15:11:25;4.90;;;2.50;;
438;SDS011;206;48.782;9.252;2023-03-17T15:13:53;2.33;;;1.70;;
438;SDS011;206;48.782;9.252;2023-03-17T15:16:28;5.77;;;2.27;;
438;SDS011;206;48.782;9.252;2023-03-17T15:19:12;3.20;;;1.73;;
438;SDS011;206;48.782;9.252;2023-03-17T15:21:43;12.23;;;11.63;;
438;SDS011;206;48.782;9.252;2023-03-17T15:26:47;3.07;;;2.20;;
438;SDS011;206;48.782;9.252;2023-03-17T15:29:13;5.00;;;2.37;;
438;SDS011;206;48.782;9.252;2023-03-17T15:31:38;2.70;;;2.50;;
438;SDS011;206;48.782;9.252;2023-03-17T15:34:04;8.10;;;3.07;;
438;SDS011;206;48.782;9.252;2023-03-17T15:36:30;3.37;;;2.13;;
438;SDS011;206;48.782;9.252;2023-03-17T15:38:56;9.53;;;2.73;;
438;SDS011;206;48.782;9.252;2023-03-17T15:41:21;3.77;;;2.63;;
438;SDS011;206;48.782;9.252;2023-03-17T15:43:47;4.00;;;2.20;;
438;SDS011;206;48.782;9.252;2023-03-17T15:46:19;3.63;;;1.53;;
438;SDS011;206;48.782;9.252;2023-03-17T15:48:51;6.07;;;1.80;;
438;SDS011;206;48.782;9.252;2023-03-17T15:51:17;3.37;;;1.70;;
438;SDS011;206;48.782;9.252;2023-03-17T15:53:42;1.80;;;1.70;;
438;SDS011;206;48.782;9.252;2023-03-17T15:56:12;3.57;;;1.80;;
438;SDS011;206;48.782;9.252;2023-03-17T15:58:40;6.10;;;2.30;;
438;SDS011;206;48.782;9.252;2023-03-17T16:01:07;2.80;;;2.00;;
438;SDS011;206;48.782;9.252;2023-03-17T16:03:35;5.50;;;2.63;;
438;SDS011;206;48.782;9.252;2023-03-17T16:06:08;6.20;;;3.40;;
438;SDS011;206;48.782;9.252;2023-03-17T16:08:39;3.67;;;2.87;;
438;SDS011;206;48.782;9.252;2023-03-17T16:11:05;9.63;;;3.50;;
438;SDS011;206;48.782;9.252;2023-03-17T16:13:36;5.50;;;3.70;;
438;SDS011;206;48.782;9.252;2023-03-17T16:16:02;5.47;;;3.40;;
438;SDS011;206;48.782;9.252;2023-03-17T16:18:33;9.27;;;5.03;;
438;SDS011;206;48.782;9.252;2023-03-17T16:21:01;5.83;;;4.00;;
438;SDS011;206;48.782;9.252;2023-03-17T16:23:30;5.40;;;3.50;;
438;SDS011;206;48.782;9.252;2023-03-17T16:25:56;6.07;;;4.13;;
438;SDS011;206;48.782;9.252;2023-03-17T16:28:23;4.50;;;3.00;;
438;SDS011;206;48.782;9.252;2023-03-17T16:30:51;9.60;;;3.93;;
438;SDS011;206;48.782;9.252;2023-03-17T16:33:19;6.40;;;3.43;;
438;SDS011;206;48.782;9.252;2023-03-17T16:35:47;4.30;;;3.80;;
438;SDS011;206;48.782;9.252;2023-03-17T16:38:14;8.70;;;4.93;;
438;SDS011;206;48.782;9.252;2023-03-17T16:40:41;8.33;;;3.87;;
438;SDS011;206;48.782;9.252;2023-03-17T16:43:19;11.30;;;4.53;;
438;SDS011;206;48.782;9.252;2023-03-17T16:45:49;6.40;;;4.07;;
438;SDS011;206;48.782;9.252;2023-03-17T16:48:17;6.77;;;3.90;;
438;SDS011;206;48.782;9.252;2023-03-17T16:50:43;11.70;;;3.80;;
438;SDS011;206;48.782;9.252;2023-03-17T16:53:08;7.70;;;3.50;;
438;SDS011;206;48.782;9.252;2023-03-17T16:55:34;6.17;;;4.33;;
438;SDS011;206;48.782;9.252;2023-03-17T16:58:46;16.60;;;8.03;;
438;SDS011;206;48.782;9.252;2023-03-17T17:00:49;17.70;;;9.50;;
438;SDS011;206;48.782;9.252;2023-03-17T17:03:17;10.97;;;6.07;;
438;SDS011;206;48.782;9.252;2023-03-17T17:05:43;14.27;;;6.83;;
438;SDS011;206;48.782;9.252;2023-03-17T17:08:09;7.80;;;5.40;;
438;SDS011;206;48.782;9.252;2023-03-17T17:10:36;13.47;;;7.80;;
438;SDS011;206;48.782;9.252;2023-03-17T17:13:03;12.60;;;8.43;;
438;SDS011;206;48.782;9.252;2023-03-17T17:15:30;8.47;;;4.90;;
438;SDS011;206;48.782;9.252;2023-03-17T17:18:00;10.43;;;5.03;;
438;SDS011;206;48.782;9.252;2023-03-17T17:20:32;6.20;;;4.13;;
438;SDS011;206;48.782;9.252;2023-03-17T17:23:01;6.60;;;5.30;;
438;SDS011;206;48.782;9.252;2023-03-17T17:25:27;7.40;;;5.10;;
438;SDS011;206;48.782;9.252;2023-03-17T17:27:53;10.87;;;6.20;;